sensor_id;sensor_type;location;lat;lon;timestamp;P1;durP1;ratioP1;P2;durP2;ratioP2
8048;SDS011;20935;42.660;23.342;2022-09-12T00:01:34;6.70;;;5.40;;
8048;SDS011;20935;42.660;23.342;2022-09-12T00:03:59;5.77;;;5.20;;
8048;SDS011;20935;42.660;23.342;2022-09-12T00:06:29;5.97;;;5.37;;
8048;SDS011;20935;42.660;23.342;2022-09-12T00:08:56;5.60;;;5.10;;
8048;SDS011;20935;42.660;23.342;2022-09-12T00:11:21;6.57;;;6.00;;
8048;SDS011;20935;42.660;23.342;2022-09-12T00:13:47;6.90;;;6.30;;
8048;SDS011;20935;42.660;23.342;2022-09-12T00:16:14;7.13;;;6.53;;
8048;SDS011;20935;42.660;23.342;2022-09-12T00:18:40;8.47;;;7.60;;
8048;SDS011;20935;42.660;23.342;2022-09-12T00:21:05;8.17;;;7.37;;
8048;SDS011;20935;42.660;23.342;2022-09-12T00:23:31;8.53;;;6.73;;
8048;SDS011;20935;42.660;23.342;2022-09-12T00:25:56;6.57;;;6.03;;
8048;SDS011;20935;42.660;23.342;2022-09-12T00:28:22;6.47;;;5.87;;
8048;SDS011;20935;42.660;23.342;2022-09-12T00:30:47;6.63;;;6.13;;
8048;SDS011;20935;42.660;23.342;2022-09-12T00:33:13;6.93;;;6.23;;
8048;SDS011;20935;42.660;23.342;2022-09-12T00:35:43;6.60;;;5.80;;
8048;SDS011;20935;42.660;23.342;2022-09-12T00:38:09;6.77;;;6.23;;
8048;SDS011;20935;42.660;23.342;2022-09-12T00:40:34;6.50;;;6.00;;
8048;SDS011;20935;42.660;23.342;2022-09-12T00:42:59;7.00;;;6.40;;
8048;SDS011;20935;42.660;23.342;2022-09-12T00:45:26;7.37;;;6.60;;
8048;SDS011;20935;42.660;23.342;2022-09-12T00:47:52;6.40;;;5.90;;
8048;SDS011;20935;42.660;23.342;2022-09-12T00:50:18;7.77;;;7.07;;
8048;SDS011;20935;42.660;23.342;2022-09-12T00:52:51;7.97;;;6.60;;
8048;SDS011;20935;42.660;23.342;2022-09-12T00:55:27;6.47;;;5.87;;
8048;SDS011;20935;42.660;23.342;2022-09-12T00:57:56;6.07;;;5.57;;
8048;SDS011;20935;42.660;23.342;2022-09-12T01:00:24;7.53;;;5.40;;
8048;SDS011;20935;42.660;23.342;2022-09-12T01:02:50;6.10;;;5.50;;
8048;SDS011;20935;42.660;23.342;2022-09-12T01:05:17;6.23;;;5.73;;
8048;SDS011;20935;42.660;23.342;2022-09-12T01:07:42;6.90;;;5.60;;
8048;SDS011;20935;42.660;23.342;2022-09-12T01:10:09;6.10;;;5.60;;
8048;SDS011;20935;42.660;23.342;2022-09-12T01:12:34;5.20;;;4.80;;
8048;SDS011;20935;42.660;23.342;2022-09-12T01:15:01;5.60;;;5.17;;
8048;SDS011;20935;42.660;23.342;2022-09-12T01:17:28;5.90;;;5.40;;
8048;SDS011;20935;42.660;23.342;2022-09-12T01:25:23;5.57;;;5.00;;
8048;SDS011;20935;42.660;23.342;2022-09-12T01:30:39;5.37;;;4.97;;
8048;SDS011;20935;42.660;23.342;2022-09-12T01:45:37;5.33;;;4.83;;
8048;SDS011;20935;42.660;23.342;2022-09-12T01:48:07;5.00;;;4.60;;
8048;SDS011;20935;42.660;23.342;2022-09-12T01:50:36;5.47;;;4.97;;
8048;SDS011;20935;42.660;23.342;2022-09-12T01:53:08;5.17;;;4.67;;
8048;SDS011;20935;42.660;23.342;2022-09-12T01:55:47;5.40;;;5.00;;
8048;SDS011;20935;42.660;23.342;2022-09-12T01:58:19;4.70;;;4.20;;
8048;SDS011;20935;42.660;23.342;2022-09-12T02:00:59;5.77;;;4.17;;
8048;SDS011;20935;42.660;23.342;2022-09-12T02:03:26;4.60;;;4.20;;
8048;SDS011;20935;42.660;23.342;2022-09-12T02:05:56;5.03;;;4.53;;
8048;SDS011;20935;42.660;23.342;2022-09-12T02:08:43;5.07;;;4.50;;
8048;SDS011;20935;42.660;23.342;2022-09-12T02:11:11;4.90;;;4.50;;
8048;SDS011;20935;42.660;23.342;2022-09-12T02:13:43;4.80;;;4.40;;
8048;SDS011;20935;42.660;23.342;2022-09-12T02:16:15;5.90;;;4.70;;
8048;SDS011;20935;42.660;23.342;2022-09-12T02:18:46;5.00;;;4.50;;
8048;SDS011;20935;42.660;23.342;2022-09-12T02:21:14;5.07;;;4.67;;
8048;SDS011;20935;42.660;23.342;2022-09-12T02:23:43;5.77;;;4.43;;
8048;SDS011;20935;42.660;23.342;2022-09-12T02:26:33;4.73;;;4.37;;
8048;SDS011;20935;42.660;23.342;2022-09-12T02:28:56;5.13;;;4.47;;
8048;SDS011;20935;42.660;23.342;2022-09-12T02:36:48;4.07;;;3.77;;
8048;SDS011;20935;42.660;23.342;2022-09-12T02:39:16;4.13;;;3.83;;
8048;SDS011;20935;42.660;23.342;2022-09-12T02:41:44;5.40;;;4.17;;
8048;SDS011;20935;42.660;23.342;2022-09-12T02:44:10;4.03;;;3.73;;
8048;SDS011;20935;42.660;23.342;2022-09-12T02:46:37;4.40;;;4.00;;
8048;SDS011;20935;42.660;23.342;2022-09-12T02:49:03;3.87;;;3.57;;
8048;SDS011;20935;42.660;23.342;2022-09-12T02:51:28;4.57;;;4.07;;
8048;SDS011;20935;42.660;23.342;2022-09-12T02:53:54;4.93;;;4.10;;
8048;SDS011;20935;42.660;23.342;2022-09-12T02:56:24;4.40;;;4.00;;
8048;SDS011;20935;42.660;23.342;2022-09-12T02:58:51;3.77;;;3.40;;
8048;SDS011;20935;42.660;23.342;2022-09-12T03:06:34;4.07;;;3.73;;
8048;SDS011;20935;42.660;23.342;2022-09-12T03:09:34;3.67;;;3.37;;
8048;SDS011;20935;42.660;23.342;2022-09-12T03:17:28;4.00;;;3.70;;
8048;SDS011;20935;42.660;23.342;2022-09-12T03:20:02;4.80;;;4.30;;
8048;SDS011;20935;42.660;23.342;2022-09-12T03:22:46;5.13;;;4.63;;
8048;SDS011;20935;42.660;23.342;2022-09-12T03:27:42;6.90;;;3.90;;
8048;SDS011;20935;42.660;23.342;2022-09-12T03:30:08;4.27;;;3.93;;
8048;SDS011;20935;42.660;23.342;2022-09-12T03:32:42;6.17;;;3.80;;
8048;SDS011;20935;42.660;23.342;2022-09-12T03:35:08;5.67;;;4.00;;
8048;SDS011;20935;42.660;23.342;2022-09-12T03:37:33;3.50;;;3.30;;
8048;SDS011;20935;42.660;23.342;2022-09-12T03:39:58;4.60;;;4.10;;
8048;SDS011;20935;42.660;23.342;2022-09-12T03:42:24;4.50;;;4.10;;
8048;SDS011;20935;42.660;23.342;2022-09-12T03:44:50;5.67;;;4.17;;
8048;SDS011;20935;42.660;23.342;2022-09-12T03:47:15;3.67;;;3.47;;
8048;SDS011;20935;42.660;23.342;2022-09-12T03:49:40;4.63;;;4.23;;
8048;SDS011;20935;42.660;23.342;2022-09-12T03:52:06;4.13;;;3.83;;
8048;SDS011;20935;42.660;23.342;2022-09-12T03:54:31;6.00;;;4.00;;
8048;SDS011;20935;42.660;23.342;2022-09-12T03:56:57;4.37;;;3.67;;
8048;SDS011;20935;42.660;23.342;2022-09-12T03:59:22;4.37;;;3.80;;
8048;SDS011;20935;42.660;23.342;2022-09-12T04:01:47;5.63;;;4.07;;
8048;SDS011;20935;42.660;23.342;2022-09-12T04:04:12;4.57;;;4.17;;
8048;SDS011;20935;42.660;23.342;2022-09-12T04:06:38;4.63;;;3.97;;
8048;SDS011;20935;42.660;23.342;2022-09-12T04:09:03;5.93;;;4.50;;
8048;SDS011;20935;42.660;23.342;2022-09-12T04:11:28;4.57;;;4.17;;
8048;SDS011;20935;42.660;23.342;2022-09-12T04:13:54;4.63;;;4.23;;
8048;SDS011;20935;42.660;23.342;2022-09-12T04:16:19;4.67;;;4.27;;
8048;SDS011;20935;42.660;23.342;2022-09-12T04:18:44;4.80;;;4.10;;
8048;SDS011;20935;42.660;23.342;2022-09-12T04:21:11;4.67;;;4.30;;
8048;SDS011;20935;42.660;23.342;2022-09-12T04:23:37;7.00;;;4.50;;
8048;SDS011;20935;42.660;23.342;2022-09-12T04:26:03;5.67;;;5.13;;
8048;SDS011;20935;42.660;23.342;2022-09-12T04:28:30;6.07;;;5.00;;
8048;SDS011;20935;42.660;23.342;2022-09-12T04:31:00;5.90;;;5.03;;
8048;SDS011;20935;42.660;23.342;2022-09-12T04:33:25;5.50;;;4.80;;
8048;SDS011;20935;42.660;23.342;2022-09-12T04:35:50;5.93;;;5.20;;
8048;SDS011;20935;42.660;23.342;2022-09-12T04:38:16;5.67;;;5.27;;
8048;SDS011;20935;42.660;23.342;2022-09-12T04:40:41;5.23;;;4.80;;
8048;SDS011;20935;42.660;23.342;2022-09-12T04:43:06;5.10;;;4.60;;
8048;SDS011;20935;42.660;23.342;2022-09-12T04:45:33;6.07;;;5.17;;
8048;SDS011;20935;42.660;23.342;2022-09-12T04:47:58;5.43;;;4.90;;
8048;SDS011;20935;42.660;23.342;2022-09-12T04:50:23;5.70;;;5.20;;
8048;SDS011;20935;42.660;23.342;2022-09-12T04:52:52;5.93;;;5.37;;
8048;SDS011;20935;42.660;23.342;2022-09-12T04:55:18;5.50;;;4.90;;
8048;SDS011;20935;42.660;23.342;2022-09-12T04:57:43;6.70;;;5.90;;
8048;SDS011;20935;42.660;23.342;2022-09-12T05:00:09;5.70;;;4.87;;
8048;SDS011;20935;42.660;23.342;2022-09-12T05:02:38;6.33;;;5.73;;
8048;SDS011;20935;42.660;23.342;2022-09-12T05:05:04;5.23;;;4.70;;
8048;SDS011;20935;42.660;23.342;2022-09-12T05:07:29;6.20;;;5.60;;
8048;SDS011;20935;42.660;23.342;2022-09-12T05:09:54;5.17;;;4.67;;
8048;SDS011;20935;42.660;23.342;2022-09-12T05:12:20;5.10;;;4.60;;
8048;SDS011;20935;42.660;23.342;2022-09-12T05:14:45;5.20;;;4.80;;
8048;SDS011;20935;42.660;23.342;2022-09-12T05:17:10;8.00;;;5.43;;
8048;SDS011;20935;42.660;23.342;2022-09-12T05:19:35;6.20;;;4.63;;
8048;SDS011;20935;42.660;23.342;2022-09-12T05:22:01;6.70;;;5.10;;
8048;SDS011;20935;42.660;23.342;2022-09-12T05:24:27;4.80;;;4.03;;
8048;SDS011;20935;42.660;23.342;2022-09-12T05:26:52;10.30;;;4.83;;
8048;SDS011;20935;42.660;23.342;2022-09-12T05:29:18;6.37;;;5.00;;
8048;SDS011;20935;42.660;23.342;2022-09-12T05:31:43;5.00;;;4.53;;
8048;SDS011;20935;42.660;23.342;2022-09-12T05:34:09;4.87;;;4.47;;
8048;SDS011;20935;42.660;23.342;2022-09-12T05:36:34;5.23;;;4.73;;
8048;SDS011;20935;42.660;23.342;2022-09-12T05:39:01;8.07;;;5.00;;
8048;SDS011;20935;42.660;23.342;2022-09-12T05:41:27;5.03;;;4.53;;
8048;SDS011;20935;42.660;23.342;2022-09-12T05:43:57;5.33;;;4.83;;
8048;SDS011;20935;42.660;23.342;2022-09-12T05:46:27;4.97;;;4.50;;
8048;SDS011;20935;42.660;23.342;2022-09-12T05:48:55;6.43;;;4.77;;
8048;SDS011;20935;42.660;23.342;2022-09-12T05:51:26;5.17;;;4.23;;
8048;SDS011;20935;42.660;23.342;2022-09-12T05:53:53;5.03;;;4.57;;
8048;SDS011;20935;42.660;23.342;2022-09-12T05:56:19;5.10;;;4.60;;
8048;SDS011;20935;42.660;23.342;2022-09-12T05:58:51;4.30;;;3.90;;
8048;SDS011;20935;42.660;23.342;2022-09-12T06:01:17;6.50;;;4.70;;
8048;SDS011;20935;42.660;23.342;2022-09-12T06:03:46;4.63;;;4.23;;
8048;SDS011;20935;42.660;23.342;2022-09-12T06:06:12;4.93;;;4.53;;
8048;SDS011;20935;42.660;23.342;2022-09-12T06:08:38;4.80;;;4.40;;
8048;SDS011;20935;42.660;23.342;2022-09-12T06:11:04;4.90;;;4.33;;
8048;SDS011;20935;42.660;23.342;2022-09-12T06:13:31;5.00;;;4.50;;
8048;SDS011;20935;42.660;23.342;2022-09-12T06:16:01;6.93;;;4.33;;
8048;SDS011;20935;42.660;23.342;2022-09-12T06:18:27;4.87;;;4.37;;
8048;SDS011;20935;42.660;23.342;2022-09-12T06:20:52;5.40;;;4.60;;
8048;SDS011;20935;42.660;23.342;2022-09-12T06:23:17;5.17;;;4.67;;
8048;SDS011;20935;42.660;23.342;2022-09-12T06:25:46;4.83;;;4.43;;
8048;SDS011;20935;42.660;23.342;2022-09-12T06:28:13;5.40;;;4.90;;
8048;SDS011;20935;42.660;23.342;2022-09-12T06:30:39;6.57;;;6.00;;
8048;SDS011;20935;42.660;23.342;2022-09-12T06:33:04;7.47;;;4.80;;
8048;SDS011;20935;42.660;23.342;2022-09-12T06:35:29;5.43;;;4.40;;
8048;SDS011;20935;42.660;23.342;2022-09-12T06:37:54;5.67;;;5.10;;
8048;SDS011;20935;42.660;23.342;2022-09-12T06:40:20;5.13;;;4.73;;
8048;SDS011;20935;42.660;23.342;2022-09-12T06:42:45;5.57;;;5.13;;
8048;SDS011;20935;42.660;23.342;2022-09-12T06:45:11;5.60;;;5.17;;
8048;SDS011;20935;42.660;23.342;2022-09-12T06:47:36;5.30;;;4.90;;
8048;SDS011;20935;42.660;23.342;2022-09-12T06:50:01;4.77;;;4.37;;
8048;SDS011;20935;42.660;23.342;2022-09-12T06:52:26;5.43;;;5.03;;
8048;SDS011;20935;42.660;23.342;2022-09-12T06:54:53;4.53;;;4.23;;
8048;SDS011;20935;42.660;23.342;2022-09-12T06:57:18;6.10;;;4.50;;
8048;SDS011;20935;42.660;23.342;2022-09-12T06:59:43;5.33;;;4.93;;
8048;SDS011;20935;42.660;23.342;2022-09-12T07:02:09;5.27;;;4.83;;
8048;SDS011;20935;42.660;23.342;2022-09-12T07:04:34;5.33;;;4.90;;
8048;SDS011;20935;42.660;23.342;2022-09-12T07:07:01;5.90;;;5.40;;
8048;SDS011;20935;42.660;23.342;2022-09-12T07:09:26;5.13;;;4.73;;
8048;SDS011;20935;42.660;23.342;2022-09-12T07:11:51;5.37;;;4.97;;
8048;SDS011;20935;42.660;23.342;2022-09-12T07:14:17;5.73;;;5.33;;
8048;SDS011;20935;42.660;23.342;2022-09-12T07:16:42;5.33;;;4.93;;
8048;SDS011;20935;42.660;23.342;2022-09-12T07:19:08;5.93;;;5.40;;
8048;SDS011;20935;42.660;23.342;2022-09-12T07:21:33;6.30;;;4.97;;
8048;SDS011;20935;42.660;23.342;2022-09-12T07:24:03;6.17;;;4.33;;
8048;SDS011;20935;42.660;23.342;2022-09-12T07:26:28;5.63;;;5.13;;
8048;SDS011;20935;42.660;23.342;2022-09-12T07:28:54;5.33;;;4.83;;
8048;SDS011;20935;42.660;23.342;2022-09-12T07:31:24;5.33;;;4.93;;
8048;SDS011;20935;42.660;23.342;2022-09-12T07:33:50;5.57;;;5.17;;
8048;SDS011;20935;42.660;23.342;2022-09-12T07:36:16;5.53;;;5.03;;
8048;SDS011;20935;42.660;23.342;2022-09-12T07:38:42;5.63;;;5.23;;
8048;SDS011;20935;42.660;23.342;2022-09-12T07:41:18;4.50;;;4.10;;
8048;SDS011;20935;42.660;23.342;2022-09-12T07:43:48;6.00;;;5.50;;
8048;SDS011;20935;42.660;23.342;2022-09-12T07:46:15;5.63;;;5.23;;
8048;SDS011;20935;42.660;23.342;2022-09-12T07:48:40;6.43;;;5.93;;
8048;SDS011;20935;42.660;23.342;2022-09-12T07:51:07;6.70;;;6.10;;
8048;SDS011;20935;42.660;23.342;2022-09-12T07:53:33;7.47;;;5.80;;
8048;SDS011;20935;42.660;23.342;2022-09-12T07:55:59;5.87;;;5.27;;
8048;SDS011;20935;42.660;23.342;2022-09-12T07:58:24;6.70;;;5.87;;
8048;SDS011;20935;42.660;23.342;2022-09-12T08:00:50;4.97;;;4.57;;
8048;SDS011;20935;42.660;23.342;2022-09-12T08:03:15;5.07;;;4.67;;
8048;SDS011;20935;42.660;23.342;2022-09-12T08:05:41;5.90;;;5.30;;
8048;SDS011;20935;42.660;23.342;2022-09-12T08:08:06;5.00;;;4.60;;
8048;SDS011;20935;42.660;23.342;2022-09-12T08:10:32;4.43;;;4.13;;
8048;SDS011;20935;42.660;23.342;2022-09-12T08:12:57;5.03;;;4.63;;
8048;SDS011;20935;42.660;23.342;2022-09-12T08:15:23;5.70;;;5.30;;
8048;SDS011;20935;42.660;23.342;2022-09-12T08:17:48;4.97;;;4.57;;
8048;SDS011;20935;42.660;23.342;2022-09-12T08:20:14;5.17;;;4.77;;
8048;SDS011;20935;42.660;23.342;2022-09-12T08:22:39;5.50;;;4.60;;
8048;SDS011;20935;42.660;23.342;2022-09-12T08:25:05;5.20;;;4.70;;
8048;SDS011;20935;42.660;23.342;2022-09-12T08:27:30;4.63;;;4.23;;
8048;SDS011;20935;42.660;23.342;2022-09-12T08:29:56;4.03;;;3.73;;
8048;SDS011;20935;42.660;23.342;2022-09-12T08:32:21;4.30;;;3.90;;
8048;SDS011;20935;42.660;23.342;2022-09-12T08:34:46;4.93;;;4.43;;
8048;SDS011;20935;42.660;23.342;2022-09-12T08:37:12;4.90;;;4.00;;
8048;SDS011;20935;42.660;23.342;2022-09-12T08:39:37;4.10;;;3.80;;
8048;SDS011;20935;42.660;23.342;2022-09-12T08:42:03;3.93;;;3.63;;
8048;SDS011;20935;42.660;23.342;2022-09-12T08:47:09;4.57;;;4.17;;
8048;SDS011;20935;42.660;23.342;2022-09-12T08:52:25;4.13;;;3.83;;
8048;SDS011;20935;42.660;23.342;2022-09-12T08:54:51;4.30;;;4.00;;
8048;SDS011;20935;42.660;23.342;2022-09-12T08:57:19;4.27;;;3.97;;
8048;SDS011;20935;42.660;23.342;2022-09-12T08:59:45;4.30;;;4.00;;
8048;SDS011;20935;42.660;23.342;2022-09-12T09:02:27;9.67;;;4.60;;
8048;SDS011;20935;42.660;23.342;2022-09-12T09:10:31;5.13;;;4.63;;
8048;SDS011;20935;42.660;23.342;2022-09-12T09:13:03;4.23;;;3.90;;
8048;SDS011;20935;42.660;23.342;2022-09-12T09:28:06;4.50;;;4.10;;
8048;SDS011;20935;42.660;23.342;2022-09-12T09:30:37;4.90;;;4.60;;
8048;SDS011;20935;42.660;23.342;2022-09-12T09:33:08;6.70;;;5.07;;
8048;SDS011;20935;42.660;23.342;2022-09-12T09:41:32;5.17;;;4.70;;
8048;SDS011;20935;42.660;23.342;2022-09-12T09:43:29;4.87;;;4.57;;
8048;SDS011;20935;42.660;23.342;2022-09-12T09:45:55;5.43;;;5.03;;
8048;SDS011;20935;42.660;23.342;2022-09-12T09:48:22;5.33;;;4.83;;
8048;SDS011;20935;42.660;23.342;2022-09-12T09:50:49;4.83;;;4.43;;
8048;SDS011;20935;42.660;23.342;2022-09-12T09:55:45;4.30;;;4.00;;
8048;SDS011;20935;42.660;23.342;2022-09-12T09:58:11;4.30;;;4.00;;
8048;SDS011;20935;42.660;23.342;2022-09-12T10:00:51;5.33;;;4.93;;
8048;SDS011;20935;42.660;23.342;2022-09-12T10:03:29;4.60;;;4.20;;
8048;SDS011;20935;42.660;23.342;2022-09-12T10:06:04;4.33;;;3.97;;
8048;SDS011;20935;42.660;23.342;2022-09-12T10:08:31;5.17;;;4.63;;
8048;SDS011;20935;42.660;23.342;2022-09-12T10:11:01;4.70;;;4.40;;
8048;SDS011;20935;42.660;23.342;2022-09-12T10:13:29;4.70;;;4.40;;
8048;SDS011;20935;42.660;23.342;2022-09-12T10:15:57;6.97;;;4.97;;
8048;SDS011;20935;42.660;23.342;2022-09-12T10:18:39;4.93;;;4.53;;
8048;SDS011;20935;42.660;23.342;2022-09-12T10:21:17;4.77;;;4.47;;
8048;SDS011;20935;42.660;23.342;2022-09-12T10:23:43;5.30;;;4.80;;
8048;SDS011;20935;42.660;23.342;2022-09-12T10:26:10;5.10;;;4.47;;
8048;SDS011;20935;42.660;23.342;2022-09-12T10:28:40;5.37;;;4.97;;
8048;SDS011;20935;42.660;23.342;2022-09-12T10:31:07;5.27;;;4.87;;
8048;SDS011;20935;42.660;23.342;2022-09-12T10:33:41;5.27;;;4.77;;
8048;SDS011;20935;42.660;23.342;2022-09-12T10:36:08;6.17;;;5.67;;
8048;SDS011;20935;42.660;23.342;2022-09-12T10:38:33;5.53;;;5.03;;
8048;SDS011;20935;42.660;23.342;2022-09-12T10:41:03;5.70;;;5.20;;
8048;SDS011;20935;42.660;23.342;2022-09-12T10:43:33;6.63;;;5.93;;
8048;SDS011;20935;42.660;23.342;2022-09-12T10:46:19;5.47;;;4.93;;
8048;SDS011;20935;42.660;23.342;2022-09-12T10:48:48;5.60;;;5.13;;
8048;SDS011;20935;42.660;23.342;2022-09-12T10:51:14;5.50;;;4.83;;
8048;SDS011;20935;42.660;23.342;2022-09-12T10:54:11;4.60;;;4.30;;
8048;SDS011;20935;42.660;23.342;2022-09-12T11:17:49;6.00;;;5.50;;
8048;SDS011;20935;42.660;23.342;2022-09-12T11:20:24;5.60;;;5.10;;
8048;SDS011;20935;42.660;23.342;2022-09-12T11:30:12;5.27;;;4.87;;
8048;SDS011;20935;42.660;23.342;2022-09-12T11:37:40;5.07;;;4.63;;
8048;SDS011;20935;42.660;23.342;2022-09-12T11:40:28;5.80;;;5.30;;
8048;SDS011;20935;42.660;23.342;2022-09-12T11:42:55;5.77;;;5.17;;
8048;SDS011;20935;42.660;23.342;2022-09-12T11:45:28;4.97;;;4.47;;
8048;SDS011;20935;42.660;23.342;2022-09-12T11:47:56;6.27;;;5.70;;
8048;SDS011;20935;42.660;23.342;2022-09-12T11:50:25;5.67;;;5.10;;
8048;SDS011;20935;42.660;23.342;2022-09-12T11:52:51;5.83;;;5.33;;
8048;SDS011;20935;42.660;23.342;2022-09-12T11:55:19;5.83;;;5.33;;
8048;SDS011;20935;42.660;23.342;2022-09-12T11:57:51;5.90;;;5.50;;
8048;SDS011;20935;42.660;23.342;2022-09-12T12:00:18;5.70;;;5.20;;
8048;SDS011;20935;42.660;23.342;2022-09-12T12:02:50;5.93;;;5.53;;
8048;SDS011;20935;42.660;23.342;2022-09-12T12:07:56;6.43;;;5.93;;
8048;SDS011;20935;42.660;23.342;2022-09-12T12:12:48;6.47;;;5.97;;
8048;SDS011;20935;42.660;23.342;2022-09-12T12:15:15;5.77;;;5.30;;
8048;SDS011;20935;42.660;23.342;2022-09-12T12:17:41;5.00;;;4.53;;
8048;SDS011;20935;42.660;23.342;2022-09-12T12:20:12;4.67;;;4.23;;
8048;SDS011;20935;42.660;23.342;2022-09-12T12:22:46;4.73;;;4.43;;
8048;SDS011;20935;42.660;23.342;2022-09-12T12:32:57;4.57;;;4.27;;
8048;SDS011;20935;42.660;23.342;2022-09-12T12:38:36;3.53;;;3.23;;
8048;SDS011;20935;42.660;23.342;2022-09-12T12:43:46;3.90;;;3.60;;
8048;SDS011;20935;42.660;23.342;2022-09-12T12:46:13;3.40;;;3.20;;
8048;SDS011;20935;42.660;23.342;2022-09-12T12:53:51;3.93;;;3.63;;
8048;SDS011;20935;42.660;23.342;2022-09-12T12:59:15;3.93;;;3.53;;
8048;SDS011;20935;42.660;23.342;2022-09-12T13:01:54;3.80;;;3.50;;
8048;SDS011;20935;42.660;23.342;2022-09-12T13:04:24;4.50;;;4.10;;
8048;SDS011;20935;42.660;23.342;2022-09-12T13:07:00;3.70;;;3.50;;
8048;SDS011;20935;42.660;23.342;2022-09-12T13:11:58;4.53;;;4.13;;
8048;SDS011;20935;42.660;23.342;2022-09-12T13:14:34;3.70;;;3.50;;
8048;SDS011;20935;42.660;23.342;2022-09-12T13:17:00;4.73;;;4.20;;
8048;SDS011;20935;42.660;23.342;2022-09-12T13:19:29;4.30;;;3.90;;
8048;SDS011;20935;42.660;23.342;2022-09-12T13:21:58;3.63;;;3.43;;
8048;SDS011;20935;42.660;23.342;2022-09-12T13:24:24;4.40;;;4.10;;
8048;SDS011;20935;42.660;23.342;2022-09-12T13:26:50;3.93;;;3.43;;
8048;SDS011;20935;42.660;23.342;2022-09-12T13:31:41;4.30;;;4.00;;
8048;SDS011;20935;42.660;23.342;2022-09-12T13:34:07;4.70;;;4.30;;
8048;SDS011;20935;42.660;23.342;2022-09-12T13:36:36;4.40;;;4.10;;
8048;SDS011;20935;42.660;23.342;2022-09-12T13:44:08;4.50;;;4.20;;
8048;SDS011;20935;42.660;23.342;2022-09-12T13:46:35;4.77;;;4.37;;
8048;SDS011;20935;42.660;23.342;2022-09-12T13:49:04;4.53;;;4.13;;
8048;SDS011;20935;42.660;23.342;2022-09-12T13:51:31;3.80;;;3.60;;
8048;SDS011;20935;42.660;23.342;2022-09-12T13:53:58;4.93;;;4.63;;
8048;SDS011;20935;42.660;23.342;2022-09-12T13:56:24;4.83;;;4.43;;
8048;SDS011;20935;42.660;23.342;2022-09-12T13:58:55;5.17;;;4.77;;
8048;SDS011;20935;42.660;23.342;2022-09-12T14:01:35;5.37;;;4.97;;
8048;SDS011;20935;42.660;23.342;2022-09-12T14:04:06;6.03;;;5.53;;
8048;SDS011;20935;42.660;23.342;2022-09-12T14:06:55;6.10;;;5.60;;
8048;SDS011;20935;42.660;23.342;2022-09-12T14:09:22;5.97;;;5.57;;
8048;SDS011;20935;42.660;23.342;2022-09-12T14:11:47;6.33;;;5.83;;
8048;SDS011;20935;42.660;23.342;2022-09-12T14:14:29;5.93;;;5.50;;
8048;SDS011;20935;42.660;23.342;2022-09-12T14:16:56;5.83;;;5.43;;
8048;SDS011;20935;42.660;23.342;2022-09-12T14:19:22;5.80;;;5.40;;
8048;SDS011;20935;42.660;23.342;2022-09-12T14:21:50;6.17;;;5.67;;
8048;SDS011;20935;42.660;23.342;2022-09-12T14:24:16;6.13;;;5.37;;
8048;SDS011;20935;42.660;23.342;2022-09-12T14:26:41;5.17;;;4.87;;
8048;SDS011;20935;42.660;23.342;2022-09-12T14:29:08;6.30;;;5.80;;
8048;SDS011;20935;42.660;23.342;2022-09-12T14:31:37;5.97;;;5.50;;
8048;SDS011;20935;42.660;23.342;2022-09-12T14:34:21;5.73;;;5.33;;
8048;SDS011;20935;42.660;23.342;2022-09-12T14:36:47;6.73;;;5.87;;
8048;SDS011;20935;42.660;23.342;2022-09-12T14:44:29;6.43;;;5.90;;
8048;SDS011;20935;42.660;23.342;2022-09-12T14:46:56;5.93;;;5.53;;
8048;SDS011;20935;42.660;23.342;2022-09-12T14:49:33;5.80;;;5.30;;
8048;SDS011;20935;42.660;23.342;2022-09-12T14:52:02;5.80;;;5.30;;
8048;SDS011;20935;42.660;23.342;2022-09-12T14:57:01;6.43;;;5.93;;
8048;SDS011;20935;42.660;23.342;2022-09-12T14:59:28;6.37;;;5.87;;
8048;SDS011;20935;42.660;23.342;2022-09-12T15:04:42;6.73;;;5.80;;
8048;SDS011;20935;42.660;23.342;2022-09-12T15:07:41;6.30;;;5.80;;
8048;SDS011;20935;42.660;23.342;2022-09-12T15:09:59;5.03;;;4.73;;
8048;SDS011;20935;42.660;23.342;2022-09-12T15:12:25;5.67;;;5.17;;
8048;SDS011;20935;42.660;23.342;2022-09-12T15:14:50;4.97;;;4.57;;
8048;SDS011;20935;42.660;23.342;2022-09-12T15:17:15;5.30;;;4.90;;
8048;SDS011;20935;42.660;23.342;2022-09-12T15:19:41;5.23;;;4.83;;
8048;SDS011;20935;42.660;23.342;2022-09-12T15:22:09;6.23;;;5.03;;
8048;SDS011;20935;42.660;23.342;2022-09-12T15:24:34;5.93;;;5.43;;
8048;SDS011;20935;42.660;23.342;2022-09-12T15:27:00;5.63;;;5.23;;
8048;SDS011;20935;42.660;23.342;2022-09-12T15:29:25;6.03;;;5.63;;
8048;SDS011;20935;42.660;23.342;2022-09-12T15:31:50;6.50;;;5.97;;
8048;SDS011;20935;42.660;23.342;2022-09-12T15:34:15;6.80;;;6.10;;
8048;SDS011;20935;42.660;23.342;2022-09-12T15:36:41;6.40;;;5.80;;
8048;SDS011;20935;42.660;23.342;2022-09-12T15:39:07;6.03;;;5.50;;
8048;SDS011;20935;42.660;23.342;2022-09-12T15:41:33;6.13;;;5.67;;
8048;SDS011;20935;42.660;23.342;2022-09-12T15:44:02;6.43;;;5.83;;
8048;SDS011;20935;42.660;23.342;2022-09-12T15:46:28;5.73;;;5.30;;
8048;SDS011;20935;42.660;23.342;2022-09-12T15:48:53;6.17;;;5.77;;
8048;SDS011;20935;42.660;23.342;2022-09-12T15:51:19;5.73;;;5.33;;
8048;SDS011;20935;42.660;23.342;2022-09-12T15:53:45;5.80;;;5.33;;
8048;SDS011;20935;42.660;23.342;2022-09-12T15:56:10;6.47;;;5.60;;
8048;SDS011;20935;42.660;23.342;2022-09-12T15:58:36;6.33;;;5.83;;
8048;SDS011;20935;42.660;23.342;2022-09-12T16:01:02;5.80;;;5.30;;
8048;SDS011;20935;42.660;23.342;2022-09-12T16:03:28;5.93;;;5.33;;
8048;SDS011;20935;42.660;23.342;2022-09-12T16:05:57;5.63;;;5.23;;
8048;SDS011;20935;42.660;23.342;2022-09-12T16:08:23;5.40;;;4.90;;
8048;SDS011;20935;42.660;23.342;2022-09-12T16:10:48;5.90;;;5.40;;
8048;SDS011;20935;42.660;23.342;2022-09-12T16:13:16;5.10;;;4.70;;
8048;SDS011;20935;42.660;23.342;2022-09-12T16:15:41;5.63;;;5.23;;
8048;SDS011;20935;42.660;23.342;2022-09-12T16:18:06;6.57;;;5.57;;
8048;SDS011;20935;42.660;23.342;2022-09-12T16:20:32;6.00;;;5.60;;
8048;SDS011;20935;42.660;23.342;2022-09-12T16:22:57;5.63;;;5.23;;
8048;SDS011;20935;42.660;23.342;2022-09-12T16:25:22;4.83;;;4.43;;
8048;SDS011;20935;42.660;23.342;2022-09-12T16:27:47;6.70;;;5.60;;
8048;SDS011;20935;42.660;23.342;2022-09-12T16:30:13;5.03;;;4.60;;
8048;SDS011;20935;42.660;23.342;2022-09-12T16:32:38;5.50;;;5.10;;
8048;SDS011;20935;42.660;23.342;2022-09-12T16:35:04;5.80;;;4.97;;
8048;SDS011;20935;42.660;23.342;2022-09-12T16:37:30;5.63;;;5.10;;
8048;SDS011;20935;42.660;23.342;2022-09-12T16:39:55;5.53;;;5.03;;
8048;SDS011;20935;42.660;23.342;2022-09-12T16:42:21;5.10;;;4.70;;
8048;SDS011;20935;42.660;23.342;2022-09-12T16:44:46;5.30;;;4.90;;
8048;SDS011;20935;42.660;23.342;2022-09-12T16:47:12;6.10;;;5.60;;
8048;SDS011;20935;42.660;23.342;2022-09-12T16:49:37;5.53;;;5.13;;
8048;SDS011;20935;42.660;23.342;2022-09-12T16:52:03;5.50;;;5.00;;
8048;SDS011;20935;42.660;23.342;2022-09-12T16:54:29;5.30;;;4.90;;
8048;SDS011;20935;42.660;23.342;2022-09-12T16:56:54;5.83;;;5.40;;
8048;SDS011;20935;42.660;23.342;2022-09-12T16:59:20;5.80;;;5.30;;
8048;SDS011;20935;42.660;23.342;2022-09-12T17:01:45;5.50;;;5.10;;
8048;SDS011;20935;42.660;23.342;2022-09-12T17:04:10;5.60;;;5.10;;
8048;SDS011;20935;42.660;23.342;2022-09-12T17:06:36;6.23;;;5.83;;
8048;SDS011;20935;42.660;23.342;2022-09-12T17:09:02;5.77;;;5.37;;
8048;SDS011;20935;42.660;23.342;2022-09-12T17:11:33;5.73;;;5.33;;
8048;SDS011;20935;42.660;23.342;2022-09-12T17:13:59;6.67;;;6.07;;
8048;SDS011;20935;42.660;23.342;2022-09-12T17:16:25;5.83;;;5.30;;
8048;SDS011;20935;42.660;23.342;2022-09-12T17:18:50;5.87;;;5.47;;
8048;SDS011;20935;42.660;23.342;2022-09-12T17:21:16;5.67;;;5.23;;
8048;SDS011;20935;42.660;23.342;2022-09-12T17:23:42;5.80;;;5.40;;